createdAt,value
2022-08-17T00:00:43.215Z,961.34
2022-08-17T00:15:46.316Z,961.36
2022-08-17T00:30:51.235Z,961.24
2022-08-17T00:45:55.180Z,961.1
2022-08-17T01:00:57.282Z,961.04
2022-08-17T01:15:59.268Z,961.06
2022-08-17T01:31:01.184Z,961.14
2022-08-17T01:46:03.823Z,961.19
2022-08-17T02:01:06.087Z,961.25
2022-08-17T02:16:07.948Z,961.33
2022-08-17T02:31:09.842Z,961.37
2022-08-17T02:46:11.730Z,961.48
2022-08-17T03:01:13.679Z,961.71
2022-08-17T03:16:15.615Z,961.85
2022-08-17T03:31:17.588Z,962
2022-08-17T03:46:27.052Z,962.19
2022-08-17T04:01:35.990Z,962.41
2022-08-17T04:16:37.923Z,962.52
2022-08-17T04:31:39.811Z,962.77
2022-08-17T04:46:41.662Z,963.04
2022-08-17T05:01:43.583Z,963.22
2022-08-17T05:16:45.516Z,963.44
2022-08-17T05:31:47.404Z,963.63
2022-08-17T05:46:49.290Z,963.82
2022-08-17T06:01:51.219Z,963.97
2022-08-17T06:16:53.136Z,964.25
2022-08-17T06:31:55.054Z,964.45
2022-08-17T06:46:56.966Z,964.51
2022-08-17T07:01:58.856Z,964.75
2022-08-17T07:17:00.728Z,964.94
2022-08-17T07:32:02.643Z,965.14
2022-08-17T07:47:04.566Z,965.25
2022-08-17T08:02:06.496Z,965.49
2022-08-17T08:17:09.346Z,965.56
2022-08-17T08:32:11.390Z,965.68
2022-08-17T08:47:13.281Z,965.86
2022-08-17T09:02:15.198Z,966.15
2022-08-17T09:17:18.568Z,966.27
2022-08-17T09:32:20.542Z,966.31
2022-08-17T09:47:22.462Z,966.5
2022-08-17T10:02:24.361Z,966.75
2022-08-17T10:17:26.243Z,966.88
2022-08-17T10:32:28.174Z,967.04
2022-08-17T10:47:38.250Z,967.24
2022-08-17T11:02:54.867Z,967.32
2022-08-17T11:17:56.845Z,967.5
2022-08-17T11:32:58.756Z,967.62
2022-08-17T11:48:26.681Z,967.63
2022-08-17T12:03:30.016Z,967.81
2022-08-17T12:18:31.981Z,968
2022-08-17T12:33:33.869Z,968.05
2022-08-17T12:48:35.788Z,968.19
2022-08-17T13:03:37.710Z,968.36
2022-08-17T13:18:39.607Z,968.52
2022-08-17T13:33:44.688Z,968.58
2022-08-17T13:48:50.518Z,968.64
2022-08-17T14:03:52.421Z,968.76
2022-08-17T14:18:56.964Z,968.83
2022-08-17T14:33:59.373Z,968.78
2022-08-17T14:49:01.259Z,968.81
2022-08-17T15:04:03.178Z,968.82
2022-08-17T15:19:05.095Z,968.81
2022-08-17T15:34:07.979Z,968.66
2022-08-17T15:49:10.573Z,968.5
2022-08-17T16:04:26.855Z,968.42
2022-08-17T16:19:33.009Z,968.31
2022-08-17T16:34:34.905Z,968.17
2022-08-17T16:49:38.128Z,968
2022-08-17T17:04:40.152Z,967.82
2022-08-17T17:19:42.954Z,967.77
2022-08-17T17:34:49.148Z,967.6
2022-08-17T17:49:52.900Z,967.54
2022-08-17T18:04:54.804Z,967.27
2022-08-17T18:19:56.718Z,967.1
2022-08-17T18:34:58.637Z,966.95
2022-08-17T18:50:00.505Z,966.66
2022-08-17T19:05:02.439Z,966.34
2022-08-17T19:20:04.405Z,966.15
2022-08-17T19:35:08.220Z,966.01
2022-08-17T19:50:10.122Z,965.76
2022-08-17T20:05:12.024Z,965.63
2022-08-17T20:20:19.802Z,965.39
2022-08-17T20:35:22.081Z,965.23
2022-08-17T20:50:24.003Z,965.1
2022-08-17T21:05:25.900Z,965.03
2022-08-17T21:20:32.532Z,964.91
2022-08-17T21:35:34.712Z,964.68
2022-08-17T21:50:40.947Z,964.46
2022-08-17T22:05:42.819Z,964.18
2022-08-17T22:20:44.689Z,964.03
2022-08-17T22:35:46.603Z,963.78
2022-08-17T22:50:49.159Z,963.65
2022-08-17T23:05:51.148Z,963.37
2022-08-17T23:20:53.121Z,963.17
2022-08-17T23:35:55.054Z,962.96
2022-08-17T23:50:56.995Z,962.88
